Time;durP1;ratioP1;P1;durP2;ratioP2;P2;SDS_P1;SDS_P2;PMS_P1;PMS_P2;Temp;Humidity;BMP_temperature;BMP_pressure;BME280_temperature;BME280_humidity;BME280_pressure;Samples;Min_cycle;Max_cycle;Signal;HPM_P1;HPM_P2
2021/12/07 00:02:10;;;;;;;18.52;12.73;;;3.10;99.90;;;;;;5015231;28;20120;-63
2021/12/07 00:04:37;;;;;;;20.88;13.85;;;3.20;99.90;;;;;;5017394;28;20103;-63
2021/12/07 00:07:04;;;;;;;20.05;13.63;;;3.20;99.90;;;;;;5014409;28;20087;-63
2021/12/07 00:09:30;;;;;;;20.15;13.15;;;3.20;99.90;;;;;;5017220;28;20592;-63
2021/12/07 00:12:03;;;;;;;19.98;13.10;;;3.00;99.90;;;;;;5009199;28;20040;-63
2021/12/07 00:14:34;;;;;;;18.88;13.35;;;3.10;99.90;;;;;;5013106;28;20108;-63
2021/12/07 00:17:02;;;;;;;19.60;12.70;;;3.00;99.90;;;;;;5015111;28;20038;-63
2021/12/07 00:19:27;;;;;;;19.80;12.32;;;3.10;99.90;;;;;;5016490;28;20144;-63
2021/12/07 00:21:53;;;;;;;18.80;13.10;;;3.10;99.90;;;;;;5013525;28;20152;-63
2021/12/07 00:24:19;;;;;;;19.42;12.73;;;3.10;99.90;;;;;;5016509;28;20193;-63
2021/12/07 00:26:45;;;;;;;19.77;13.63;;;3.20;99.90;;;;;;5010521;28;20049;-63
2021/12/07 00:29:12;;;;;;;19.02;13.07;;;3.20;99.90;;;;;;5011227;28;20080;-63
2021/12/07 00:31:46;;;;;;;22.08;13.77;;;3.20;99.90;;;;;;5014046;28;20057;-63
2021/12/07 00:36:44;;;;;;;20.98;12.63;;;3.50;99.90;;;;;;5011176;28;20071;-63
2021/12/07 00:39:16;;;;;;;20.02;12.00;;;3.60;99.90;;;;;;5019557;28;20065;-63
2021/12/07 00:41:42;;;;;;;16.80;12.38;;;3.40;99.90;;;;;;5014049;28;20367;-64
2021/12/07 00:44:08;;;;;;;16.95;11.52;;;3.60;99.90;;;;;;5011350;28;20474;-63
2021/12/07 00:46:34;;;;;;;17.05;10.90;;;3.50;99.90;;;;;;5013704;28;20041;-63
2021/12/07 00:49:00;;;;;;;17.08;10.98;;;3.40;99.90;;;;;;5016747;28;20037;-65
2021/12/07 00:51:26;;;;;;;14.60;9.95;;;3.30;99.90;;;;;;5011491;28;20633;-64
2021/12/07 00:53:51;;;;;;;16.80;10.80;;;3.40;99.90;;;;;;5016225;28;20037;-64
2021/12/07 00:56:17;;;;;;;14.95;10.57;;;3.50;99.90;;;;;;5010381;28;20065;-64
2021/12/07 00:58:43;;;;;;;15.77;11.25;;;3.70;99.90;;;;;;5016564;28;20153;-64
2021/12/07 01:01:12;;;;;;;18.63;11.35;;;3.70;99.90;;;;;;5014851;28;20030;-64
2021/12/07 01:03:39;;;;;;;18.73;11.55;;;3.60;99.90;;;;;;5009535;28;20064;-64
2021/12/07 01:06:27;;;;;;;17.75;10.52;;;3.40;99.90;;;;;;5006560;28;20033;-64
2021/12/07 01:09:15;;;;;;;17.75;11.10;;;3.30;99.90;;;;;;5015369;28;20037;-64
2021/12/07 01:25:33;;;;;;;19.48;12.63;;;3.20;99.90;;;;;;5017884;28;21003;-64
2021/12/07 01:28:06;;;;;;;18.17;13.20;;;3.20;99.90;;;;;;5015285;28;20102;-64
2021/12/07 01:30:45;;;;;;;20.75;14.63;;;3.10;99.90;;;;;;5010790;28;20061;-64
2021/12/07 01:41:22;;;;;;;27.15;18.48;;;3.20;99.90;;;;;;5011392;28;20125;-64
2021/12/07 01:52:11;;;;;;;31.17;21.17;;;3.00;99.90;;;;;;5015310;28;20512;-64
2021/12/07 02:00:15;;;;;;;33.90;22.08;;;3.10;99.90;;;;;;5019787;28;20032;-64
2021/12/07 02:02:41;;;;;;;34.45;23.45;;;3.10;99.90;;;;;;5013915;28;20316;-64
2021/12/07 02:05:09;;;;;;;37.03;23.05;;;3.10;99.90;;;;;;5020180;28;20038;-64
2021/12/07 02:07:34;;;;;;;35.13;23.48;;;3.10;99.90;;;;;;5022705;28;20425;-64
2021/12/07 02:10:07;;;;;;;40.58;24.77;;;3.20;99.90;;;;;;5022315;28;20044;-64
2021/12/07 02:12:42;;;;;;;36.60;24.08;;;3.30;99.90;;;;;;5022904;28;20057;-64
2021/12/07 02:15:10;;;;;;;38.15;24.15;;;3.40;99.90;;;;;;5015181;28;20409;-64
2021/12/07 02:17:36;;;;;;;39.15;25.23;;;3.50;99.90;;;;;;5010305;28;20039;-64
2021/12/07 02:20:03;;;;;;;38.05;24.33;;;3.40;99.90;;;;;;5025815;28;20451;-64
2021/12/07 02:22:28;;;;;;;36.03;24.50;;;3.50;99.90;;;;;;5016342;28;20128;-64
2021/12/07 02:24:54;;;;;;;44.35;25.80;;;3.50;99.90;;;;;;5018584;28;20404;-64
2021/12/07 02:27:20;;;;;;;40.95;25.73;;;3.50;99.90;;;;;;5008386;28;20088;-64
2021/12/07 02:29:45;;;;;;;43.88;25.48;;;3.60;99.90;;;;;;5019356;28;20533;-63
2021/12/07 02:32:11;;;;;;;45.10;27.50;;;3.60;99.90;;;;;;5016634;28;20524;-63
2021/12/07 02:34:42;;;;;;;40.45;27.23;;;3.60;99.90;;;;;;5019515;28;20055;-64
2021/12/07 02:37:09;;;;;;;48.97;29.88;;;3.60;99.90;;;;;;5017839;28;20042;-64
2021/12/07 02:39:39;;;;;;;52.05;30.48;;;3.70;99.90;;;;;;5017428;28;20346;-63
2021/12/07 02:42:05;;;;;;;52.03;30.95;;;3.70;99.90;;;;;;5012565;28;20037;-63
2021/12/07 02:44:32;;;;;;;54.78;31.20;;;3.70;99.90;;;;;;5000276;28;20037;-64
2021/12/07 02:46:58;;;;;;;48.78;29.33;;;3.70;99.90;;;;;;5004720;28;20050;-64
2021/12/07 02:49:23;;;;;;;49.00;28.15;;;3.80;99.90;;;;;;5020118;28;20096;-63
2021/12/07 02:51:50;;;;;;;46.00;26.52;;;3.80;99.90;;;;;;5017193;28;20038;-63
2021/12/07 02:54:17;;;;;;;42.45;24.40;;;3.80;99.90;;;;;;5019900;28;20029;-63
2021/12/07 02:56:43;;;;;;;42.17;25.35;;;3.80;99.90;;;;;;5020934;28;20450;-63
2021/12/07 02:59:09;;;;;;;45.25;28.20;;;3.90;99.90;;;;;;5016830;28;20461;-63
2021/12/07 03:01:42;;;;;;;53.30;30.58;;;3.90;99.90;;;;;;5013483;28;20099;-63
2021/12/07 03:04:13;;;;;;;54.95;32.08;;;4.00;99.90;;;;;;5014733;28;20068;-63
2021/12/07 03:28:22;;;;;;;57.10;32.08;;;4.00;99.90;;;;;;5018337;28;20413;-64
2021/12/07 03:30:48;;;;;;;57.53;32.28;;;4.00;99.90;;;;;;5015990;28;20045;-63
2021/12/07 03:33:14;;;;;;;56.63;31.95;;;4.10;99.90;;;;;;5013985;28;20037;-63
2021/12/07 03:35:40;;;;;;;50.95;32.30;;;4.10;99.90;;;;;;5012837;28;20524;-63
2021/12/07 03:38:07;;;;;;;57.92;33.72;;;4.20;99.90;;;;;;5012523;28;20172;-63
2021/12/07 03:40:33;;;;;;;55.35;32.78;;;4.20;99.90;;;;;;5012415;28;20041;-64
2021/12/07 03:42:59;;;;;;;56.92;31.35;;;4.20;99.90;;;;;;5016196;28;20048;-63
2021/12/07 03:45:25;;;;;;;53.63;32.00;;;4.30;99.90;;;;;;5017726;28;20033;-64
2021/12/07 03:47:51;;;;;;;55.92;31.38;;;4.20;99.90;;;;;;5013383;28;20637;-64
2021/12/07 03:50:20;;;;;;;52.90;30.75;;;4.30;99.90;;;;;;5016504;28;20030;-64
2021/12/07 03:52:46;;;;;;;51.65;30.80;;;4.30;99.90;;;;;;5013862;28;20465;-64
2021/12/07 03:55:12;;;;;;;53.00;29.83;;;4.30;99.90;;;;;;5009533;28;20046;-64
2021/12/07 03:57:37;;;;;;;52.17;28.83;;;4.20;99.90;;;;;;5013581;28;20061;-64
2021/12/07 04:00:07;;;;;;;61.65;29.65;;;4.20;99.90;;;;;;5016769;28;20038;-63
2021/12/07 04:02:39;;;;;;;51.40;26.42;;;4.20;99.90;;;;;;5011504;28;20045;-64
2021/12/07 04:05:12;;;;;;;48.90;26.35;;;4.20;99.90;;;;;;5011431;28;20438;-64
2021/12/07 04:07:38;;;;;;;;;;;4.20;99.90;;;;;;5018571;28;20450;-64
2021/12/07 04:10:06;;;;;;;46.05;24.40;;;4.30;99.90;;;;;;5015178;28;19919;-63
2021/12/07 04:12:32;;;;;;;39.53;22.83;;;4.30;99.90;;;;;;5014987;28;20753;-63
2021/12/07 04:14:57;;;;;;;41.05;23.58;;;4.20;99.90;;;;;;5009986;28;20041;-64
2021/12/07 04:17:23;;;;;;;44.42;22.35;;;4.10;99.90;;;;;;5011507;28;20495;-63
2021/12/07 04:19:49;;;;;;;42.95;20.92;;;4.20;99.90;;;;;;5016858;28;20225;-64
2021/12/07 04:22:14;;;;;;;36.10;20.30;;;4.20;99.90;;;;;;5016375;28;20045;-63
2021/12/07 04:24:40;;;;;;;36.08;19.20;;;4.30;99.90;;;;;;5015830;28;20179;-62
2021/12/07 04:27:06;;;;;;;47.35;18.20;;;4.30;99.90;;;;;;5013504;28;20030;-62
2021/12/07 04:29:31;;;;;;;36.38;17.88;;;4.30;99.90;;;;;;5014799;28;20042;-64
2021/12/07 04:31:57;;;;;;;42.45;16.60;;;4.30;99.90;;;;;;5013706;28;20122;-63
2021/12/07 04:34:23;;;;;;;38.92;15.45;;;4.30;99.90;;;;;;5009632;28;20637;-63
2021/12/07 04:36:48;;;;;;;32.25;13.32;;;4.20;99.90;;;;;;5016210;28;20546;-63
2021/12/07 04:39:14;;;;;;;30.80;11.95;;;4.10;99.90;;;;;;5006952;28;20538;-63
2021/12/07 04:41:43;;;;;;;29.05;11.90;;;4.10;99.90;;;;;;5017613;28;20095;-63
2021/12/07 04:44:09;;;;;;;27.13;11.57;;;4.10;99.90;;;;;;5006708;28;20065;-63
2021/12/07 04:47:25;;;;;;;29.38;11.55;;;4.10;99.90;;;;;;5016783;28;20029;-63
2021/12/07 04:57:47;;;;;;;27.30;9.55;;;4.20;99.90;;;;;;5011023;28;20091;-62
2021/12/07 05:00:22;;;;;;;34.65;10.80;;;4.20;99.90;;;;;;5012951;28;20065;-62
2021/12/07 05:02:54;;;;;;;28.52;10.15;;;4.10;99.90;;;;;;5007246;28;20105;-63
2021/12/07 05:05:23;;;;;;;18.57;8.07;;;4.10;99.90;;;;;;5017651;28;20048;-62
2021/12/07 05:07:52;;;;;;;29.77;9.65;;;4.10;99.90;;;;;;5007266;28;20037;-62
2021/12/07 05:15:33;;;;;;;34.20;10.32;;;4.20;99.90;;;;;;5017525;28;20032;-63
2021/12/07 05:39:36;;;;;;;30.65;9.57;;;4.20;99.90;;;;;;5010643;28;20095;-63
2021/12/07 05:42:02;;;;;;;30.50;9.18;;;4.10;99.90;;;;;;5011073;28;20068;-63
2021/12/07 05:44:28;;;;;;;28.17;8.77;;;4.10;99.90;;;;;;5004758;28;20191;-63
2021/12/07 05:46:53;;;;;;;27.08;9.23;;;4.10;99.90;;;;;;5010415;28;20862;-63
2021/12/07 05:49:19;;;;;;;34.40;9.35;;;4.10;99.90;;;;;;5010651;28;20033;-63
2021/12/07 05:51:45;;;;;;;40.38;10.80;;;4.10;99.90;;;;;;5014925;28;20053;-63
2021/12/07 05:54:11;;;;;;;36.92;9.48;;;4.10;99.90;;;;;;5004195;28;20069;-63
2021/12/07 05:56:36;;;;;;;31.90;10.18;;;4.00;99.90;;;;;;5012669;28;20030;-63
2021/12/07 05:59:02;;;;;;;25.85;8.57;;;4.00;99.90;;;;;;5004226;28;20100;-63
2021/12/07 06:01:28;;;;;;;35.75;9.05;;;4.00;99.90;;;;;;5013163;28;20467;-63
2021/12/07 06:03:54;;;;;;;31.70;8.80;;;4.10;99.90;;;;;;5011292;28;20113;-63
2021/12/07 06:06:19;;;;;;;33.95;9.10;;;4.10;99.90;;;;;;5010217;28;20033;-63
2021/12/07 06:08:45;;;;;;;31.17;9.23;;;4.10;99.90;;;;;;5018760;28;20060;-63
2021/12/07 06:11:11;;;;;;;23.83;8.32;;;4.10;99.90;;;;;;5013386;28;20043;-64
2021/12/07 06:13:36;;;;;;;34.63;8.93;;;4.00;99.90;;;;;;5017859;28;20160;-63
2021/12/07 06:16:06;;;;;;;29.48;8.85;;;4.00;99.90;;;;;;5017171;28;20419;-64
2021/12/07 06:18:32;;;;;;;24.20;8.45;;;4.00;99.90;;;;;;5010125;28;20037;-63
2021/12/07 06:20:58;;;;;;;29.70;8.63;;;4.10;99.90;;;;;;5011173;28;20080;-63
2021/12/07 06:23:23;;;;;;;28.92;7.90;;;4.00;99.90;;;;;;5018472;28;20093;-63
2021/12/07 06:25:49;;;;;;;24.45;8.43;;;4.00;99.90;;;;;;5016105;28;20042;-63
2021/12/07 06:28:16;;;;;;;27.95;8.70;;;4.00;99.90;;;;;;5014336;28;20042;-63
2021/12/07 06:30:44;;;;;;;25.98;8.63;;;4.00;99.90;;;;;;5015836;28;20041;-63
2021/12/07 06:33:10;;;;;;;30.33;8.43;;;4.00;99.90;;;;;;5016557;28;20044;-63
2021/12/07 06:35:36;;;;;;;26.50;7.82;;;4.00;99.90;;;;;;5021025;28;20040;-64
2021/12/07 06:38:02;;;;;;;22.77;8.20;;;4.00;99.90;;;;;;5012936;28;21678;-63
2021/12/07 06:40:27;;;;;;;32.70;8.02;;;4.00;99.90;;;;;;5016341;28;20094;-63
2021/12/07 06:42:59;;;;;;;22.60;8.02;;;3.90;99.90;;;;;;5009540;28;20140;-63
2021/12/07 06:45:25;;;;;;;31.15;8.68;;;4.00;99.90;;;;;;5012111;28;20042;-63
2021/12/07 06:47:51;;;;;;;29.75;9.05;;;3.90;99.90;;;;;;5014433;28;20034;-63
2021/12/07 06:50:17;;;;;;;31.95;8.93;;;3.90;99.90;;;;;;5013349;28;20104;-63
2021/12/07 06:52:42;;;;;;;32.75;9.68;;;4.00;99.90;;;;;;5012389;28;20366;-63
2021/12/07 06:55:09;;;;;;;24.30;8.63;;;3.90;99.90;;;;;;5009006;28;20037;-63
2021/12/07 06:57:34;;;;;;;26.48;8.95;;;4.00;99.90;;;;;;5012351;28;20366;-63
2021/12/07 07:00:00;;;;;;;23.40;8.05;;;4.00;99.90;;;;;;5015800;28;20021;-63
2021/12/07 07:02:26;;;;;;;23.25;7.78;;;3.80;99.90;;;;;;5016801;28;20482;-63
2021/12/07 07:04:52;;;;;;;24.27;7.93;;;3.90;99.90;;;;;;5015018;28;20038;-63
2021/12/07 07:07:22;;;;;;;30.15;9.20;;;3.90;99.90;;;;;;5009118;28;20564;-63
2021/12/07 07:09:47;;;;;;;30.65;7.88;;;4.00;99.90;;;;;;5016446;28;20045;-63
2021/12/07 07:12:13;;;;;;;23.00;8.15;;;4.00;99.90;;;;;;5006529;28;20091;-62
2021/12/07 07:14:38;;;;;;;28.77;8.88;;;4.00;99.90;;;;;;5008588;28;20065;-64
2021/12/07 07:17:04;;;;;;;27.73;9.40;;;4.00;99.90;;;;;;5013242;28;20043;-63
2021/12/07 07:19:30;;;;;;;29.02;10.80;;;4.00;99.90;;;;;;5017342;28;20688;-63
2021/12/07 07:21:58;;;;;;;39.95;13.02;;;4.00;99.90;;;;;;5010544;28;20454;-63
2021/12/07 07:24:24;;;;;;;29.95;12.98;;;4.00;99.90;;;;;;5016954;28;20493;-63
2021/12/07 07:26:49;;;;;;;33.55;14.52;;;4.00;99.90;;;;;;5013705;28;20098;-64
2021/12/07 07:29:15;;;;;;;38.78;15.68;;;3.90;99.90;;;;;;5019251;28;20397;-63
2021/12/07 07:31:41;;;;;;;30.10;15.65;;;3.80;99.90;;;;;;5013290;28;20041;-63
2021/12/07 07:34:06;;;;;;;33.13;15.00;;;3.70;99.90;;;;;;5019564;28;20212;-65
2021/12/07 07:36:32;;;;;;;42.20;17.38;;;3.80;99.90;;;;;;5020936;28;20100;-65
2021/12/07 07:38:58;;;;;;;39.20;17.52;;;3.70;99.90;;;;;;5017379;28;20048;-65
2021/12/07 07:41:24;;;;;;;39.67;18.05;;;3.80;99.90;;;;;;5015364;28;20136;-65
2021/12/07 07:43:50;;;;;;;38.65;18.33;;;3.80;99.90;;;;;;5008251;28;20431;-65
2021/12/07 07:46:15;;;;;;;40.53;17.60;;;3.90;99.90;;;;;;5013863;28;20601;-65
2021/12/07 07:48:41;;;;;;;34.80;17.90;;;3.80;99.90;;;;;;5012250;28;20038;-65
2021/12/07 07:51:07;;;;;;;39.78;17.40;;;3.90;99.90;;;;;;5012144;28;20048;-65
2021/12/07 07:53:32;;;;;;;42.72;17.02;;;3.90;99.90;;;;;;5009428;28;20038;-65
2021/12/07 07:55:58;;;;;;;45.05;16.48;;;3.90;99.90;;;;;;5012507;28;20040;-65
2021/12/07 07:58:24;;;;;;;37.15;16.30;;;3.80;99.90;;;;;;5008194;28;20436;-65
2021/12/07 08:00:50;;;;;;;44.08;16.77;;;3.90;99.90;;;;;;5003619;28;20050;-65
2021/12/07 08:03:15;;;;;;;38.78;15.82;;;3.90;99.90;;;;;;5009073;28;20044;-65
2021/12/07 08:05:41;;;;;;;31.83;14.52;;;4.00;99.90;;;;;;5010671;28;20057;-65
2021/12/07 08:08:07;;;;;;;37.85;15.77;;;3.80;99.90;;;;;;5013356;28;20475;-65
2021/12/07 08:10:33;;;;;;;34.38;13.68;;;3.70;99.90;;;;;;5008798;28;20033;-65
2021/12/07 08:13:01;;;;;;;27.83;12.68;;;3.70;99.90;;;;;;5011513;28;20037;-65
2021/12/07 08:15:28;;;;;;;37.33;13.65;;;3.80;99.90;;;;;;5011333;28;20339;-65
2021/12/07 08:17:54;;;;;;;30.73;12.10;;;3.90;99.90;;;;;;5013743;28;20456;-65
2021/12/07 08:20:20;;;;;;;27.17;12.73;;;3.90;99.90;;;;;;5008466;28;20026;-65
2021/12/07 08:22:46;;;;;;;38.75;12.25;;;3.90;99.90;;;;;;5012520;28;20029;-65
2021/12/07 08:25:13;;;;;;;34.05;13.73;;;3.80;99.90;;;;;;5002963;28;20053;-65
2021/12/07 08:27:39;;;;;;;34.10;13.02;;;3.90;99.90;;;;;;5004603;28;20057;-65
2021/12/07 08:30:06;;;;;;;31.13;12.18;;;3.90;99.90;;;;;;5017816;28;20026;-65
2021/12/07 08:32:32;;;;;;;32.47;11.38;;;4.00;99.90;;;;;;5007990;28;20041;-65
2021/12/07 08:34:58;;;;;;;24.15;11.38;;;3.70;99.90;;;;;;5008700;28;20200;-65
2021/12/07 08:37:23;;;;;;;33.45;11.90;;;3.90;99.90;;;;;;5007579;28;20378;-65
2021/12/07 08:39:49;;;;;;;32.08;11.52;;;3.90;99.90;;;;;;5008064;28;20497;-64
2021/12/07 08:42:15;;;;;;;23.10;9.65;;;4.10;99.90;;;;;;5009208;28;20531;-65
2021/12/07 08:44:41;;;;;;;26.60;9.00;;;4.10;99.90;;;;;;5008345;28;20060;-64
2021/12/07 08:47:07;;;;;;;21.33;9.38;;;4.10;99.90;;;;;;5006437;28;20458;-65
2021/12/07 08:49:33;;;;;;;30.67;8.55;;;4.10;99.90;;;;;;5014541;28;20049;-65
2021/12/07 08:51:59;;;;;;;21.48;7.53;;;4.00;99.90;;;;;;5010440;28;20025;-65
2021/12/07 08:59:52;;;;;;;25.23;7.60;;;4.10;99.90;;;;;;5010154;28;20136;-65
2021/12/07 09:02:20;;;;;;;25.60;8.05;;;4.20;99.90;;;;;;5006714;28;20446;-65
2021/12/07 09:04:47;;;;;;;27.55;8.35;;;4.20;99.90;;;;;;5007947;28;20042;-66
2021/12/07 09:07:13;;;;;;;23.45;7.93;;;4.20;99.90;;;;;;5008043;28;20044;-65
2021/12/07 09:09:39;;;;;;;25.00;7.88;;;4.30;99.90;;;;;;5013393;28;20452;-65
2021/12/07 09:12:07;;;;;;;26.52;7.50;;;4.30;99.90;;;;;;5006411;28;20059;-65
2021/12/07 09:14:34;;;;;;;23.40;7.65;;;4.30;99.90;;;;;;5006160;28;20037;-65
2021/12/07 09:17:02;;;;;;;30.23;8.40;;;4.40;99.90;;;;;;5012184;28;20040;-65
2021/12/07 09:19:28;;;;;;;24.88;7.78;;;4.30;99.90;;;;;;5002745;28;20026;-65
2021/12/07 09:21:54;;;;;;;30.83;7.32;;;4.30;99.90;;;;;;5026372;28;20665;-65
2021/12/07 09:24:21;;;;;;;26.67;6.88;;;4.20;99.90;;;;;;5013696;28;20038;-65
2021/12/07 09:26:47;;;;;;;22.38;7.28;;;4.20;99.90;;;;;;5013100;28;20026;-65
2021/12/07 09:29:13;;;;;;;26.80;6.57;;;4.20;99.90;;;;;;5005210;28;20351;-65
2021/12/07 09:31:39;;;;;;;26.70;6.65;;;4.30;99.90;;;;;;5007733;28;20037;-65
2021/12/07 09:34:06;;;;;;;23.98;6.97;;;4.30;99.90;;;;;;5009840;28;20045;-65
2021/12/07 09:36:33;;;;;;;20.35;6.57;;;4.30;99.90;;;;;;5008600;28;20030;-65
2021/12/07 09:38:59;;;;;;;20.60;6.25;;;4.30;99.90;;;;;;5010792;28;20041;-65
2021/12/07 09:41:25;;;;;;;22.30;6.90;;;4.30;99.90;;;;;;5009133;28;20068;-64
2021/12/07 09:43:51;;;;;;;23.95;5.63;;;4.30;99.90;;;;;;5014443;28;20049;-65
2021/12/07 09:46:18;;;;;;;24.92;6.13;;;4.30;99.90;;;;;;5012792;28;20042;-65
2021/12/07 09:48:45;;;;;;;18.15;5.72;;;4.40;99.90;;;;;;5013658;28;20111;-65
2021/12/07 09:51:16;;;;;;;23.17;6.75;;;4.50;99.90;;;;;;5034739;28;20503;-67
2021/12/07 09:53:43;;;;;;;20.52;6.18;;;4.50;99.90;;;;;;5019398;28;20045;-65
2021/12/07 09:56:09;;;;;;;27.45;6.80;;;4.60;99.90;;;;;;5012085;28;20049;-65
2021/12/07 09:58:36;;;;;;;20.80;5.82;;;4.60;99.90;;;;;;5013050;28;20045;-65
2021/12/07 10:01:04;;;;;;;28.83;6.78;;;4.60;99.90;;;;;;5014236;28;20091;-65
2021/12/07 10:03:29;;;;;;;26.52;7.35;;;4.60;99.90;;;;;;5010863;28;20454;-65
2021/12/07 10:05:55;;;;;;;22.50;6.78;;;4.70;99.90;;;;;;5014295;28;20121;-65
2021/12/07 10:08:21;;;;;;;20.05;7.13;;;4.60;99.90;;;;;;5010251;28;20034;-66
2021/12/07 10:10:51;;;;;;;19.85;6.53;;;4.60;99.90;;;;;;5008726;28;20109;-66
2021/12/07 10:13:17;;;;;;;23.15;6.47;;;4.60;99.90;;;;;;5008480;28;20038;-65
2021/12/07 10:15:44;;;;;;;22.92;6.25;;;4.70;99.90;;;;;;5010255;28;20478;-65
2021/12/07 10:18:21;;;;;;;26.33;7.18;;;4.70;99.90;;;;;;5011100;28;20409;-66
2021/12/07 10:20:53;;;;;;;26.42;6.45;;;4.80;99.90;;;;;;5010538;28;20413;-65
2021/12/07 10:23:20;;;;;;;24.92;7.65;;;4.80;99.90;;;;;;5010966;28;20052;-66
2021/12/07 10:25:59;;;;;;;24.42;6.50;;;4.90;99.90;;;;;;5011019;28;20128;-65
2021/12/07 10:28:32;;;;;;;24.63;7.10;;;4.80;99.90;;;;;;5015679;28;20125;-65
2021/12/07 10:31:01;;;;;;;;;;;4.90;99.90;;;;;;5012819;28;20037;-66
2021/12/07 10:33:36;;;;;;;21.35;6.65;;;4.90;99.90;;;;;;5011597;28;19951;-65
2021/12/07 10:36:12;;;;;;;23.15;6.40;;;5.00;99.90;;;;;;5016037;28;20040;-65
2021/12/07 10:38:40;;;;;;;26.77;6.78;;;5.00;99.90;;;;;;5018547;28;20067;-65
2021/12/07 10:41:11;;;;;;;17.77;6.13;;;5.00;99.90;;;;;;5010112;28;20036;-66
2021/12/07 10:43:58;;;;;;;20.55;6.38;;;5.10;99.90;;;;;;5012864;28;20124;-65
2021/12/07 10:46:52;;;;;;;24.70;6.90;;;5.20;99.90;;;;;;5010073;28;20136;-65
2021/12/07 10:49:30;;;;;;;24.13;6.50;;;5.20;99.90;;;;;;5008274;28;20042;-66
2021/12/07 10:52:07;;;;;;;22.58;6.30;;;5.20;99.90;;;;;;5010943;28;20034;-65
2021/12/07 10:54:38;;;;;;;25.65;6.30;;;5.20;99.90;;;;;;5011902;28;20125;-65
2021/12/07 10:57:06;;;;;;;23.23;6.88;;;5.20;99.90;;;;;;5009951;28;20037;-65
2021/12/07 10:59:34;;;;;;;23.13;6.65;;;5.20;99.90;;;;;;5010450;28;20060;-65
2021/12/07 11:02:11;;;;;;;20.83;5.93;;;5.20;99.90;;;;;;5011886;28;20048;-65
2021/12/07 11:04:37;;;;;;;20.85;6.55;;;5.30;99.90;;;;;;5014503;28;20033;-66
2021/12/07 11:07:09;;;;;;;24.45;6.47;;;5.30;99.90;;;;;;5012715;28;20128;-65
2021/12/07 11:09:41;;;;;;;19.45;5.55;;;5.30;99.90;;;;;;5011129;28;20026;-65
2021/12/07 11:12:09;;;;;;;16.60;4.23;;;5.30;99.90;;;;;;5009100;28;20068;-66
2021/12/07 11:14:52;;;;;;;20.25;5.55;;;5.30;99.90;;;;;;5011038;28;20141;-65
2021/12/07 11:17:32;;;;;;;20.67;5.78;;;5.30;99.90;;;;;;5009537;28;20037;-66
2021/12/07 11:20:00;;;;;;;26.60;5.90;;;5.30;99.90;;;;;;5009945;28;20473;-65
2021/12/07 11:22:31;;;;;;;24.33;6.05;;;5.30;99.90;;;;;;5009494;28;20053;-65
2021/12/07 11:25:01;;;;;;;27.38;5.93;;;5.30;99.90;;;;;;5010277;28;20030;-65
2021/12/07 11:30:26;;;;;;;14.73;4.82;;;5.40;99.90;;;;;;5014182;28;20224;-65
2021/12/07 11:32:55;;;;;;;21.17;5.38;;;5.40;99.90;;;;;;5013438;28;20061;-66
2021/12/07 11:35:23;;;;;;;19.15;5.70;;;5.50;99.90;;;;;;5013335;28;20508;-65
2021/12/07 11:37:50;;;;;;;23.92;5.55;;;5.50;99.90;;;;;;5014316;28;20059;-66
2021/12/07 11:40:22;;;;;;;24.27;5.25;;;5.60;99.90;;;;;;5015563;28;20223;-66
2021/12/07 11:42:47;;;;;;;19.25;4.68;;;5.50;99.90;;;;;;5011796;28;20052;-65
2021/12/07 11:45:25;;;;;;;15.75;4.97;;;5.50;99.90;;;;;;5008780;28;20498;-65
2021/12/07 11:48:02;;;;;;;18.42;5.25;;;5.60;99.90;;;;;;5010019;28;20038;-66
2021/12/07 11:50:40;;;;;;;19.13;4.55;;;5.60;99.90;;;;;;5012499;28;20041;-66
2021/12/07 11:53:10;;;;;;;17.70;4.20;;;5.60;99.90;;;;;;5012689;28;20485;-66
2021/12/07 11:55:40;;;;;;;26.65;5.05;;;5.70;99.90;;;;;;5010995;28;20117;-65
2021/12/07 11:58:07;;;;;;;18.88;4.28;;;5.70;99.90;;;;;;5010573;28;20109;-65
2021/12/07 12:00:41;;;;;;;15.75;6.95;;;5.70;99.90;;;;;;5014744;28;20136;-65
2021/12/07 12:03:12;;;;;;;36.20;15.18;;;5.70;99.90;;;;;;5010586;28;20129;-65
2021/12/07 12:05:41;;;;;;;18.08;4.55;;;5.90;99.90;;;;;;5012937;28;20041;-66
2021/12/07 12:08:09;;;;;;;13.32;4.07;;;6.00;99.90;;;;;;5005747;28;20032;-65
2021/12/07 12:10:41;;;;;;;18.35;4.03;;;6.00;99.90;;;;;;5005638;28;20537;-65
2021/12/07 12:13:29;;;;;;;8.35;3.05;;;6.00;99.90;;;;;;5008438;28;20087;-65
2021/12/07 12:16:16;;;;;;;14.07;4.00;;;5.90;99.90;;;;;;5005072;28;20053;-64
2021/12/07 12:19:15;;;;;;;10.07;3.53;;;5.90;99.90;;;;;;5009460;28;25170;-64
2021/12/07 12:21:51;;;;;;;13.50;4.50;;;5.80;99.90;;;;;;5033448;28;20038;-65
2021/12/07 12:24:45;;;;;;;20.20;4.25;;;5.80;99.90;;;;;;5009925;28;20035;-64
2021/12/07 12:27:27;;;;;;;16.13;4.00;;;5.80;99.90;;;;;;5008931;28;20449;-64
2021/12/07 12:29:55;;;;;;;12.40;3.28;;;5.90;99.90;;;;;;5011957;28;20044;-65
2021/12/07 12:32:31;;;;;;;18.73;3.67;;;5.90;99.90;;;;;;5008118;28;20104;-65
2021/12/07 12:34:57;;;;;;;16.02;3.50;;;6.00;99.90;;;;;;5008345;28;20030;-65
2021/12/07 12:37:27;;;;;;;15.43;3.63;;;6.00;99.90;;;;;;5010294;28;20037;-66
2021/12/07 12:39:57;;;;;;;11.98;3.25;;;6.00;99.90;;;;;;5006440;28;20460;-65
2021/12/07 12:42:45;;;;;;;12.00;3.17;;;6.00;99.90;;;;;;5010135;28;20116;-66
2021/12/07 12:45:25;;;;;;;15.80;3.45;;;5.90;99.90;;;;;;5013247;28;20121;-65
2021/12/07 12:48:01;;;;;;;10.23;3.95;;;5.90;99.90;;;;;;5009823;28;20033;-65
2021/12/07 12:50:30;;;;;;;11.98;4.10;;;5.90;99.90;;;;;;5006732;28;20040;-65
2021/12/07 12:52:58;;;;;;;14.63;3.95;;;5.90;99.90;;;;;;5005110;28;20573;-65
2021/12/07 12:55:37;;;;;;;13.75;4.35;;;5.90;99.90;;;;;;5011696;28;20507;-65
2021/12/07 12:58:20;;;;;;;16.63;4.70;;;6.00;99.90;;;;;;5009392;28;20498;-65
2021/12/07 13:01:11;;;;;;;13.15;4.13;;;6.00;99.90;;;;;;5015213;28;20444;-65
2021/12/07 13:03:43;;;;;;;14.73;3.92;;;6.00;99.90;;;;;;5003914;28;20053;-65
2021/12/07 13:06:14;;;;;;;16.05;3.63;;;6.00;99.90;;;;;;5006873;28;20030;-66
2021/12/07 13:09:24;;;;;;;14.45;3.30;;;6.00;99.90;;;;;;5009673;28;20459;-65
2021/12/07 13:12:02;;;;;;;9.90;2.92;;;6.10;99.90;;;;;;4980222;28;20433;-65
2021/12/07 13:14:32;;;;;;;13.02;3.58;;;6.10;99.90;;;;;;5007124;28;20049;-65
2021/12/07 13:17:03;;;;;;;13.35;3.00;;;6.10;99.90;;;;;;5010249;28;20042;-65
2021/12/07 13:19:30;;;;;;;16.00;3.17;;;6.10;99.90;;;;;;5009094;28;20137;-65
2021/12/07 13:22:04;;;;;;;12.30;3.67;;;6.00;99.90;;;;;;5006869;28;20449;-65
2021/12/07 13:24:32;;;;;;;7.18;2.22;;;6.00;99.90;;;;;;5010836;28;20041;-65
2021/12/07 13:26:57;;;;;;;7.38;2.22;;;6.00;99.90;;;;;;5009290;28;20128;-65
2021/12/07 13:29:26;;;;;;;10.60;2.65;;;6.00;99.90;;;;;;5012809;28;20478;-65
2021/12/07 13:32:03;;;;;;;8.55;2.00;;;6.00;99.90;;;;;;5009188;28;20048;-65
2021/12/07 13:34:31;;;;;;;8.55;2.33;;;6.00;99.90;;;;;;5013754;28;20038;-65
2021/12/07 13:36:58;;;;;;;9.82;2.40;;;6.00;99.90;;;;;;5010427;28;20117;-65
2021/12/07 13:39:24;;;;;;;8.25;2.67;;;6.00;99.90;;;;;;5009981;28;20735;-65
2021/12/07 13:41:54;;;;;;;5.88;2.10;;;6.00;99.90;;;;;;5009362;28;20073;-65
2021/12/07 13:44:20;;;;;;;10.48;2.88;;;6.00;99.90;;;;;;5011145;28;20079;-65
2021/12/07 13:46:46;;;;;;;9.13;2.78;;;6.10;99.90;;;;;;5011955;28;20049;-65
2021/12/07 13:49:13;;;;;;;9.65;2.35;;;6.10;99.90;;;;;;5006166;28;20026;-65
2021/12/07 13:51:40;;;;;;;11.30;2.72;;;6.00;99.90;;;;;;5010852;28;20045;-65
2021/12/07 13:54:13;;;;;;;9.88;2.42;;;6.10;99.90;;;;;;5012323;28;20029;-65
2021/12/07 13:56:39;;;;;;;9.18;3.17;;;5.90;99.90;;;;;;5009861;28;20495;-65
2021/12/07 13:59:08;;;;;;;9.30;2.80;;;5.90;99.90;;;;;;5005597;28;20496;-65
2021/12/07 14:01:36;;;;;;;7.82;2.63;;;5.90;99.90;;;;;;5011747;28;20038;-65
2021/12/07 14:04:03;;;;;;;8.80;2.47;;;5.80;99.90;;;;;;5006705;28;20107;-65
2021/12/07 14:06:29;;;;;;;9.07;2.88;;;5.80;99.90;;;;;;5003845;28;20129;-65
2021/12/07 14:09:05;;;;;;;9.85;2.80;;;5.80;99.90;;;;;;5008949;28;20390;-65
2021/12/07 14:11:30;;;;;;;10.35;3.00;;;5.80;99.90;;;;;;5008318;28;20034;-65
2021/12/07 14:13:56;;;;;;;11.00;3.00;;;5.80;99.90;;;;;;5007251;28;20116;-65
2021/12/07 14:16:24;;;;;;;6.38;2.40;;;5.80;99.90;;;;;;5004430;28;20127;-64
2021/12/07 14:18:50;;;;;;;9.25;3.00;;;5.70;99.90;;;;;;5011696;28;20048;-65
2021/12/07 14:21:16;;;;;;;8.27;2.58;;;5.70;99.90;;;;;;5007185;28;20026;-65
2021/12/07 14:23:48;;;;;;;10.60;3.00;;;5.60;99.90;;;;;;5009304;28;20030;-65
2021/12/07 14:26:20;;;;;;;7.27;2.33;;;5.70;99.90;;;;;;5008677;28;20043;-65
2021/12/07 14:28:50;;;;;;;9.18;2.60;;;5.60;99.90;;;;;;5009929;28;20033;-65
2021/12/07 14:31:17;;;;;;;12.35;2.45;;;5.60;99.90;;;;;;5014364;28;20033;-65
2021/12/07 14:33:49;;;;;;;9.55;2.78;;;5.50;99.90;;;;;;5016584;28;20599;-65
2021/12/07 14:36:17;;;;;;;6.78;2.10;;;5.50;99.90;;;;;;5012306;28;20042;-65